createdAt,value
2016-10-05T12:12:10.253Z,44.31
2016-10-05T12:13:10.126Z,44.32
2016-10-05T12:14:10.061Z,44.02
2016-10-05T12:15:09.997Z,43.54
2016-10-05T12:16:09.936Z,44.21
2016-10-05T12:17:10.189Z,43.82
2016-10-05T12:18:10.125Z,44.59
2016-10-05T12:19:09.764Z,44.02
2016-10-05T12:20:09.687Z,44.42
2016-10-05T12:21:09.626Z,43.94
2016-10-05T12:22:09.593Z,43.92
2016-10-05T12:23:09.512Z,44.31
2016-10-05T12:24:09.467Z,44.02
2016-10-05T12:25:09.692Z,44.23
2016-10-05T12:26:09.361Z,43.92
2016-10-05T12:27:09.256Z,44.11
2016-10-05T12:28:09.204Z,44.59
2016-10-05T12:29:09.166Z,44.9
2016-10-05T12:30:09.106Z,44.81
2016-10-05T12:31:09.036Z,44.13
2016-10-05T12:32:08.985Z,44.49
2016-10-05T12:33:08.886Z,44.81
2016-10-05T12:34:09.147Z,44.04
2016-10-05T12:35:08.767Z,44.11
2016-10-05T12:36:08.708Z,44.52
2016-10-05T12:37:08.653Z,44.32
2016-10-05T12:38:08.582Z,44.81
2016-10-05T12:39:08.541Z,44.79
2016-10-05T12:40:08.483Z,44.59
2016-10-05T12:41:08.712Z,44.69
2016-10-05T12:42:08.680Z,44.42
2016-10-05T12:43:08.585Z,44.81
2016-10-05T12:44:08.522Z,44.04
2016-10-05T12:45:08.151Z,44.52
2016-10-05T12:46:08.109Z,44.81
2016-10-05T12:47:08.027Z,44.52
2016-10-05T12:48:07.963Z,44.79
2016-10-05T12:49:07.906Z,44.71
2016-10-05T12:50:07.895Z,44.42
2016-10-05T12:51:07.818Z,44.52
2016-10-05T12:52:07.746Z,44.62
2016-10-05T12:53:07.674Z,44.62
2016-10-05T12:54:07.606Z,44.62
2016-10-05T12:55:07.544Z,45.1
2016-10-05T12:56:07.476Z,44.4
2016-10-05T12:57:07.930Z,44.32
2016-10-05T12:58:07.661Z,44.52
2016-10-05T12:59:07.299Z,44.71
2016-10-05T13:00:07.278Z,44.42
2016-10-05T13:01:07.480Z,44.9
2016-10-05T13:02:07.106Z,44.62
2016-10-05T13:03:07.046Z,44.62
2016-10-05T13:04:06.983Z,44.4
2016-10-05T13:05:07.137Z,44.52
2016-10-05T13:06:06.859Z,44.42
2016-10-05T13:07:06.796Z,44.62
2016-10-05T13:08:07.104Z,44.59
2016-10-05T13:09:06.675Z,44.04
2016-10-05T13:10:06.871Z,44.62
2016-10-05T13:11:06.557Z,44.62
2016-10-05T13:12:06.500Z,44.04
2016-10-05T13:13:06.436Z,44.32
2016-10-05T13:14:06.376Z,44.13
2016-10-05T13:15:06.626Z,44.23
2016-10-05T13:16:06.561Z,44.71
2016-10-05T13:17:06.190Z,44.13
2016-10-05T13:18:06.120Z,44.13
2016-10-05T13:19:06.084Z,44.9
2016-10-05T13:20:06.006Z,44.04
2016-10-05T13:21:05.935Z,44.32
2016-10-05T13:22:05.879Z,44.71
2016-10-05T13:23:06.127Z,44.52
2016-10-05T13:24:06.069Z,44.49
2016-10-05T13:25:05.700Z,44.49
2016-10-05T13:26:05.633Z,44.9
2016-10-05T13:27:05.573Z,44.81
2016-10-05T13:28:05.508Z,44.81
2016-10-05T13:29:05.765Z,44.42
2016-10-05T13:30:05.688Z,44.52
2016-10-05T13:31:05.323Z,44.52
2016-10-05T13:32:05.263Z,44.81
2016-10-05T13:33:05.200Z,44.62
2016-10-05T13:34:05.143Z,44.42
2016-10-05T13:35:05.088Z,44.42
2016-10-05T13:36:05.022Z,44.62
2016-10-05T13:37:04.953Z,44.81
2016-10-05T13:38:04.892Z,44.62
2016-10-05T13:39:04.830Z,44.52
2016-10-05T13:40:04.770Z,44.23
2016-10-05T13:41:04.708Z,44.4
2016-10-05T13:42:04.685Z,44.42
2016-10-05T13:43:04.587Z,44.62
2016-10-05T13:44:04.529Z,44.62
2016-10-05T13:45:04.464Z,44.62
2016-10-05T13:46:04.408Z,44.71
2016-10-05T13:47:04.347Z,44.62
2016-10-05T13:48:04.279Z,44.32
2016-10-05T13:49:04.223Z,44.9
2016-10-05T13:50:04.499Z,44.52
2016-10-05T13:51:04.101Z,44.71
2016-10-05T13:52:04.237Z,44.52
2016-10-05T13:53:03.997Z,44.9
2016-10-05T13:54:03.916Z,45.1
2016-10-05T13:55:03.850Z,44.71
2016-10-05T13:56:03.790Z,44.62
2016-10-05T13:57:03.731Z,44.71
2016-10-05T13:58:03.666Z,45
2016-10-05T13:59:03.608Z,44.71
2016-10-05T14:00:03.573Z,44.71
2016-10-05T14:01:03.494Z,44.71
2016-10-05T14:02:03.736Z,45.39
2016-10-05T14:03:03.675Z,44.62
2016-10-05T14:04:03.304Z,44.71
2016-10-05T14:05:03.487Z,44.71
2016-10-05T14:06:03.172Z,44.71
2016-10-05T14:07:03.116Z,44.71
2016-10-05T14:08:03.051Z,44.81
2016-10-05T14:09:03.323Z,45.29
2016-10-05T14:10:02.939Z,45.48
2016-10-05T14:11:02.876Z,45.39
2016-10-05T14:12:02.809Z,45.39
2016-10-05T14:13:02.745Z,44.9
2016-10-05T14:14:02.684Z,45.39
2016-10-05T14:15:02.625Z,45.1
2016-10-05T14:16:02.566Z,45.29
2016-10-05T14:17:02.499Z,45
2016-10-05T14:18:02.438Z,45.39
2016-10-05T14:19:02.385Z,45
2016-10-05T14:20:02.322Z,45.58
2016-10-05T14:21:02.569Z,45.39
2016-10-05T14:22:02.195Z,45.1
2016-10-05T14:23:02.434Z,45.48
2016-10-05T14:24:02.074Z,45.1
2016-10-05T14:25:02.005Z,45.58
2016-10-05T14:26:01.949Z,45.39
2016-10-05T14:27:01.891Z,45.39
2016-10-05T14:28:01.917Z,45.29
2016-10-05T14:29:01.765Z,45.48
2016-10-05T14:30:01.720Z,45.2
2016-10-05T14:31:01.639Z,45.58
2016-10-05T14:32:01.893Z,45.29
2016-10-05T14:33:01.519Z,45.48
2016-10-05T14:34:01.455Z,45.87
2016-10-05T14:35:01.403Z,45.29
2016-10-05T14:36:01.334Z,45.58
2016-10-05T14:37:01.280Z,45.48
2016-10-05T14:38:01.210Z,45.68
2016-10-05T14:39:01.148Z,45.77
2016-10-05T14:40:01.087Z,45.39
2016-10-05T14:41:01.036Z,45.29
2016-10-05T14:42:00.965Z,45.39
2016-10-05T14:43:00.907Z,45.39
2016-10-05T14:44:00.852Z,45.68
2016-10-05T14:45:00.781Z,45.58
2016-10-05T14:46:01.038Z,46.83
2016-10-05T14:47:00.672Z,51.07
2016-10-05T14:48:00.909Z,51.36
2016-10-05T14:49:00.561Z,47.7
2016-10-05T14:50:00.478Z,52.04
2016-10-05T14:51:00.418Z,50.59
2016-10-05T14:52:00.352Z,50.59
2016-10-05T14:53:00.291Z,50.78
2016-10-05T14:54:00.231Z,51.94
2016-10-05T14:55:00.489Z,52.04
2016-10-05T14:56:00.108Z,50.4
2016-10-05T14:57:00.053Z,50.4
2016-10-05T14:57:59.986Z,49.73
2016-10-05T14:58:59.922Z,50.69
2016-10-05T14:59:59.861Z,51.07
2016-10-05T15:00:59.816Z,50.01
2016-10-05T15:01:59.737Z,49.73
2016-10-05T15:02:59.679Z,49.53
2016-10-05T15:03:59.617Z,50.49
2016-10-05T15:04:59.555Z,49.73
2016-10-05T15:05:59.630Z,49.82
2016-10-05T15:06:59.426Z,49.82
2016-10-05T15:07:59.372Z,49.24
2016-10-05T15:08:59.332Z,49.63
2016-10-05T15:09:59.253Z,48.08
2016-10-05T15:10:59.183Z,48.18
2016-10-05T15:11:59.124Z,49.82
2016-10-05T15:12:59.062Z,48.38
2016-10-05T15:13:59.015Z,48.66
2016-10-05T15:14:58.938Z,48.38
2016-10-05T15:15:58.898Z,47.99
2016-10-05T15:16:58.824Z,48.08
2016-10-05T15:17:58.760Z,47.8
2016-10-05T15:18:58.705Z,48.38
2016-10-05T15:19:58.633Z,48.28
2016-10-05T15:20:58.573Z,49.53
2016-10-05T15:21:58.519Z,49.05
2016-10-05T15:22:58.456Z,47.31
2016-10-05T15:23:58.391Z,49.43
2016-10-05T15:24:58.856Z,47.6
2016-10-05T15:25:58.316Z,48.47
2016-10-05T15:26:58.221Z,48.76
2016-10-05T15:27:58.466Z,47.7
2016-10-05T15:28:58.393Z,48.28
2016-10-05T15:29:58.371Z,47.7
2016-10-05T15:30:58.175Z,47.89
2016-10-05T15:31:57.907Z,47.51
2016-10-05T15:32:57.837Z,47.22
2016-10-05T15:33:57.774Z,46.93
2016-10-05T15:34:57.717Z,47.22
2016-10-05T15:35:58.006Z,46.73
2016-10-05T15:36:57.595Z,46.83
2016-10-05T15:37:57.548Z,48.08
2016-10-05T15:38:57.473Z,48.47
2016-10-05T15:39:57.407Z,47.7
2016-10-05T15:40:57.347Z,48.08
2016-10-05T15:41:57.284Z,47.51
2016-10-05T15:42:57.224Z,46.45
2016-10-05T15:43:57.174Z,47.41
2016-10-05T15:44:57.109Z,46.83
2016-10-05T15:45:57.354Z,46.25
2016-10-05T15:46:57.002Z,47.41
2016-10-05T15:47:56.923Z,47.51
2016-10-05T15:48:57.174Z,46.93
2016-10-05T15:49:57.106Z,47.24
2016-10-05T15:50:56.741Z,46.83
2016-10-05T15:51:56.678Z,46.64
2016-10-05T15:52:56.616Z,46.64
2016-10-05T15:53:56.551Z,46.73
2016-10-05T15:54:56.495Z,47.03
2016-10-05T15:55:56.443Z,47.03
2016-10-05T15:56:56.372Z,46.73
2016-10-05T15:57:56.311Z,46.64
2016-10-05T15:58:56.250Z,46.35
2016-10-05T15:59:56.200Z,46.64
2016-10-05T16:00:56.140Z,46.55
2016-10-05T16:01:56.063Z,46.55
2016-10-05T16:02:56.007Z,46.83
2016-10-05T16:03:55.950Z,46.55
2016-10-05T16:04:55.876Z,46.55
2016-10-05T16:05:55.818Z,46.83
2016-10-05T16:06:55.967Z,46.35
2016-10-05T16:07:56.018Z,46.25
2016-10-05T16:08:55.638Z,46.55
2016-10-05T16:09:55.577Z,46.55
2016-10-05T16:10:55.516Z,46.83
2016-10-05T16:11:55.452Z,46.55
2016-10-05T16:12:55.700Z,46.64
2016-10-05T16:13:55.331Z,46.73
2016-10-05T16:14:55.306Z,46.64
2016-10-05T16:15:55.642Z,46.55
2016-10-05T16:16:55.145Z,46.35
2016-10-05T16:17:55.084Z,46.64
2016-10-05T16:18:55.336Z,46.55
2016-10-05T16:19:54.970Z,45.97
2016-10-05T16:20:54.911Z,46.06
2016-10-05T16:21:54.840Z,46.15
2016-10-05T16:22:54.783Z,46.15
2016-10-05T16:23:54.720Z,46.15
2016-10-05T16:24:54.670Z,46.35
2016-10-05T16:25:54.596Z,46.06
2016-10-05T16:26:54.864Z,45.99
2016-10-05T16:27:54.478Z,46.35
2016-10-05T16:28:54.616Z,46.15
2016-10-05T16:29:54.669Z,46.15
2016-10-05T16:30:54.294Z,46.06
2016-10-05T16:31:54.231Z,46.06
2016-10-05T16:32:54.373Z,46.06
2016-10-05T16:33:54.417Z,45.97
2016-10-05T16:34:54.369Z,45.97
2016-10-05T16:35:54.002Z,46.06
2016-10-05T16:36:53.922Z,46.25
2016-10-05T16:37:53.864Z,45.99
2016-10-05T16:38:53.808Z,45.58
2016-10-05T16:39:53.751Z,45.58
2016-10-05T16:40:53.679Z,45.77
2016-10-05T16:41:53.615Z,45.87
2016-10-05T16:42:53.558Z,46.35
2016-10-05T16:43:53.514Z,45.58
2016-10-05T16:44:53.443Z,45.68
2016-10-05T16:45:53.374Z,45.79
2016-10-05T16:46:53.317Z,45.58
2016-10-05T16:47:53.262Z,45.77
2016-10-05T16:48:53.190Z,45.77
2016-10-05T16:49:53.130Z,45.87
2016-10-05T16:50:53.074Z,45.68
2016-10-05T16:51:53.335Z,45.58
2016-10-05T16:52:52.950Z,45.77
2016-10-05T16:53:52.897Z,45.68
2016-10-05T16:54:52.828Z,45.58
2016-10-05T16:55:52.782Z,45.48
2016-10-05T16:56:53.023Z,45.77
2016-10-05T16:57:52.643Z,45.87
2016-10-05T16:58:52.586Z,45.97
2016-10-05T16:59:52.518Z,45.77
2016-10-05T17:00:52.461Z,46.15
2016-10-05T17:01:52.710Z,45.77
2016-10-05T17:02:52.651Z,45.77
2016-10-05T17:03:52.274Z,45.97
2016-10-05T17:04:52.545Z,45.87
2016-10-05T17:05:52.471Z,45.97
2016-10-05T17:06:52.099Z,45.77
2016-10-05T17:07:52.041Z,45.87
2016-10-05T17:08:51.976Z,45.39
2016-10-05T17:09:52.216Z,45.58
2016-10-05T17:10:51.847Z,45.48
2016-10-05T17:11:52.103Z,45.48
2016-10-05T17:12:51.724Z,45.58
2016-10-05T17:13:51.665Z,45.58
2016-10-05T17:14:51.910Z,45.58
2016-10-05T17:15:51.878Z,45.39
2016-10-05T17:16:51.790Z,45.68
2016-10-05T17:17:51.419Z,45.68
2016-10-05T17:18:51.365Z,45.29
2016-10-05T17:19:51.320Z,45.39
2016-10-05T17:20:51.242Z,45.68
2016-10-05T17:21:51.376Z,45.39
2016-10-05T17:22:51.430Z,45.39
2016-10-05T17:23:51.051Z,45.2
2016-10-05T17:24:50.990Z,45.39
2016-10-05T17:25:50.927Z,45.48
2016-10-05T17:26:50.871Z,45.39
2016-10-05T17:27:50.909Z,45.29
2016-10-05T17:28:50.749Z,45.29
2016-10-05T17:29:50.904Z,45.68
2016-10-05T17:30:50.637Z,45.2
2016-10-05T17:31:50.571Z,45.39
2016-10-05T17:32:50.822Z,45.77
2016-10-05T17:33:50.762Z,45.29
2016-10-05T17:34:50.686Z,45.48
2016-10-05T17:35:50.554Z,45.29
2016-10-05T17:36:50.256Z,45.68
2016-10-05T17:37:50.220Z,45.58
2016-10-05T17:38:50.681Z,45.39
2016-10-05T17:39:50.078Z,45.58
2016-10-05T17:40:50.025Z,45.39
2016-10-05T17:41:49.955Z,45.68
2016-10-05T17:42:49.889Z,45.39
2016-10-05T17:43:49.832Z,45.68
2016-10-05T17:44:49.789Z,45.68
2016-10-05T17:45:49.710Z,45.2
2016-10-05T17:46:49.643Z,45.77
2016-10-05T17:47:49.586Z,45.48
2016-10-05T17:48:49.527Z,45.39
2016-10-05T17:49:49.464Z,45.58
2016-10-05T17:50:49.405Z,45.77
2016-10-05T17:51:49.349Z,45.68
2016-10-05T17:52:49.276Z,45.39
2016-10-05T17:53:49.231Z,45.39
2016-10-05T17:54:49.469Z,45.48
2016-10-05T17:55:49.111Z,45.87
2016-10-05T17:56:49.347Z,45.68
2016-10-05T17:57:48.982Z,45.87
2016-10-05T17:58:48.917Z,45.39
2016-10-05T17:59:49.071Z,45.39
2016-10-05T18:00:48.789Z,45.68
2016-10-05T18:01:48.734Z,45.39
2016-10-05T18:02:48.685Z,45.68
2016-10-05T18:03:48.604Z,45.29
2016-10-05T18:04:48.546Z,45.97
2016-10-05T18:05:48.489Z,45.29
2016-10-05T18:06:48.742Z,45.39
2016-10-05T18:07:48.362Z,45.87
2016-10-05T18:08:48.301Z,45.48
2016-10-05T18:09:48.245Z,45.77
2016-10-05T18:10:48.174Z,45.6
2016-10-05T18:11:48.145Z,45.29
2016-10-05T18:12:48.056Z,45.39
2016-10-05T18:13:48.010Z,45.58
2016-10-05T18:14:47.941Z,45.48
2016-10-05T18:15:47.874Z,45.68
2016-10-05T18:16:47.812Z,45.29
2016-10-05T18:17:47.752Z,45.58
2016-10-05T18:18:47.892Z,45.68
2016-10-05T18:19:47.937Z,45.2
2016-10-05T18:20:47.780Z,45.39
2016-10-05T18:21:47.843Z,45.39
2016-10-05T18:22:47.445Z,45.48
2016-10-05T18:23:47.633Z,45.29
2016-10-05T18:24:47.320Z,45.68
2016-10-05T18:25:47.263Z,45.58
2016-10-05T18:26:47.211Z,45.29
2016-10-05T18:27:47.361Z,45.48
2016-10-05T18:28:47.389Z,45.87
2016-10-05T18:29:47.026Z,45.48
2016-10-05T18:30:47.169Z,45.29
2016-10-05T18:31:47.105Z,45.77
2016-10-05T18:32:46.832Z,45.77
2016-10-05T18:33:46.779Z,45.87
2016-10-05T18:34:47.237Z,45.29
2016-10-05T18:35:46.876Z,46.15
2016-10-05T18:36:46.595Z,45.39
2016-10-05T18:37:46.848Z,45.87
2016-10-05T18:38:46.469Z,45.87
2016-10-05T18:39:46.406Z,46.15
2016-10-05T18:40:46.350Z,45.58
2016-10-05T18:41:46.303Z,45.87
2016-10-05T18:42:46.226Z,45.87
2016-10-05T18:43:46.193Z,45.58
2016-10-05T18:44:46.113Z,45.58
2016-10-05T18:45:46.038Z,46.15
2016-10-05T18:46:45.979Z,45.68
2016-10-05T18:47:46.173Z,45.77
2016-10-05T18:48:45.855Z,45.77
2016-10-05T18:49:45.792Z,45.68
2016-10-05T18:50:45.735Z,45.39
2016-10-05T18:51:45.676Z,45.97
2016-10-05T18:52:45.611Z,45.68
2016-10-05T18:53:45.550Z,45.97
2016-10-05T18:54:45.485Z,45.87
2016-10-05T18:55:45.643Z,45.87
2016-10-05T18:56:45.371Z,45.58
2016-10-05T18:57:45.305Z,45.77
2016-10-05T18:58:45.243Z,46.06
2016-10-05T18:59:45.183Z,45.77
2016-10-05T19:00:45.438Z,45.77
2016-10-05T19:01:45.069Z,45.77
2016-10-05T19:02:45.001Z,45.77
2016-10-05T19:03:44.941Z,46.15
2016-10-05T19:04:44.882Z,45.39
2016-10-05T19:05:44.816Z,45.87
2016-10-05T19:06:44.753Z,45.68
2016-10-05T19:07:44.692Z,45.29
2016-10-05T19:08:44.640Z,45.39
2016-10-05T19:09:44.573Z,45.48
2016-10-05T19:10:44.521Z,45.87
2016-10-05T19:11:44.788Z,45.39
2016-10-05T19:12:44.404Z,45.77
2016-10-05T19:13:44.345Z,45.48
2016-10-05T19:14:44.571Z,45.58
2016-10-05T19:15:44.203Z,45.58
2016-10-05T19:16:44.140Z,45.48
2016-10-05T19:17:44.080Z,45.39
2016-10-05T19:18:44.023Z,45.29
2016-10-05T19:19:43.959Z,45.87
2016-10-05T19:20:43.906Z,45.2
2016-10-05T19:21:44.161Z,45.2
2016-10-05T19:22:43.792Z,45.29
2016-10-05T19:23:43.718Z,45.48
2016-10-05T19:24:43.655Z,45.29
2016-10-05T19:25:43.597Z,45.58
2016-10-05T19:26:43.844Z,45.39
2016-10-05T19:27:43.783Z,45.39
2016-10-05T19:28:43.409Z,45.48
2016-10-05T19:29:43.348Z,45.48
2016-10-05T19:30:43.605Z,45.51
2016-10-05T19:31:43.225Z,45.39
2016-10-05T19:32:43.371Z,44.9
2016-10-05T19:33:43.105Z,45.48
2016-10-05T19:34:43.047Z,44.9
2016-10-05T19:35:42.992Z,45.29
2016-10-05T19:36:43.130Z,45.39
2016-10-05T19:37:42.859Z,45
2016-10-05T19:38:42.811Z,44.81
2016-10-05T19:39:42.743Z,45
2016-10-05T19:40:42.678Z,44.9
2016-10-05T19:41:42.618Z,45
2016-10-05T19:42:42.559Z,45.1
2016-10-05T19:43:42.490Z,45
2016-10-05T19:44:42.434Z,45.1
2016-10-05T19:45:42.387Z,45
2016-10-05T19:46:42.325Z,45
2016-10-05T19:47:42.559Z,45.1
2016-10-05T19:48:42.505Z,45.1
2016-10-05T19:49:42.148Z,44.9
2016-10-05T19:50:42.068Z,45
2016-10-05T19:51:42.004Z,45.2
2016-10-05T19:52:41.943Z,44.9
2016-10-05T19:53:41.902Z,45.1
2016-10-05T19:54:41.826Z,45.2
2016-10-05T19:55:41.756Z,45.29
2016-10-05T19:56:41.704Z,45.29
2016-10-05T19:57:41.651Z,45.2
2016-10-05T19:58:41.575Z,45.29
2016-10-05T19:59:41.521Z,44.9
2016-10-05T20:00:41.452Z,45.1
2016-10-05T20:01:41.398Z,44.81
2016-10-05T20:02:42.532Z,45.1
2016-10-05T20:03:41.496Z,45.1
2016-10-05T20:04:41.212Z,44.9
2016-10-05T20:05:41.148Z,44.9
2016-10-05T20:06:41.088Z,45.1
2016-10-05T20:07:41.345Z,44.9
2016-10-05T20:08:41.278Z,44.9
2016-10-05T20:09:41.213Z,44.9
2016-10-05T20:10:41.162Z,45.1
2016-10-05T20:11:40.788Z,45
2016-10-05T20:12:40.716Z,45
2016-10-05T20:13:40.659Z,45
2016-10-05T20:14:40.597Z,45
2016-10-05T20:15:40.545Z,44.9
2016-10-05T20:16:40.474Z,45.1
2016-10-05T20:17:40.424Z,45.1
2016-10-05T20:18:40.370Z,45.1
2016-10-05T20:19:40.293Z,44.9
2016-10-05T20:20:40.461Z,45
2016-10-05T20:21:40.169Z,45
2016-10-05T20:22:40.121Z,45
2016-10-05T20:23:40.047Z,45
2016-10-05T20:24:40.508Z,45.1
2016-10-05T20:25:39.923Z,45.1
2016-10-05T20:26:39.868Z,44.9
2016-10-05T20:27:40.118Z,45
2016-10-05T20:28:39.742Z,45
2016-10-05T20:29:39.681Z,45.12
2016-10-05T20:30:39.625Z,45
2016-10-05T20:31:39.564Z,45.1
2016-10-05T20:32:39.504Z,45.1
2016-10-05T20:33:39.759Z,45
2016-10-05T20:34:39.722Z,45.1
2016-10-05T20:35:39.313Z,45
2016-10-05T20:36:39.257Z,45.1
2016-10-05T20:37:39.390Z,44.9
2016-10-05T20:38:39.127Z,44.9
2016-10-05T20:39:39.075Z,45.1
2016-10-05T20:40:39.006Z,45
2016-10-05T20:41:38.942Z,45.1
2016-10-05T20:42:38.898Z,45.1
2016-10-05T20:43:38.998Z,45.1
2016-10-05T20:44:38.773Z,45.12
2016-10-05T20:45:39.026Z,44.9
2016-10-05T20:46:38.640Z,45
2016-10-05T20:47:38.895Z,45.1
2016-10-05T20:48:38.521Z,45
2016-10-05T20:49:38.455Z,45.1
2016-10-05T20:50:38.616Z,45
2016-10-05T20:51:38.343Z,45.1
2016-10-05T20:52:38.275Z,45
2016-10-05T20:53:38.225Z,45
2016-10-05T20:54:38.155Z,45.1
2016-10-05T20:55:38.103Z,45.1
2016-10-05T20:56:38.026Z,45.1
2016-10-05T20:57:38.173Z,44.9
2016-10-05T20:58:37.904Z,45
2016-10-05T20:59:37.846Z,45
2016-10-05T21:00:37.783Z,45.1
2016-10-05T21:01:37.721Z,45
2016-10-05T21:02:37.667Z,45.1
2016-10-05T21:03:37.599Z,45
2016-10-05T21:04:37.847Z,45
2016-10-05T21:05:37.792Z,45
2016-10-05T21:06:37.416Z,45.1
2016-10-05T21:07:37.873Z,45
2016-10-05T21:08:37.295Z,45.1
2016-10-05T21:09:37.237Z,45
2016-10-05T21:10:37.173Z,45
2016-10-05T21:11:37.109Z,45.1
2016-10-05T21:12:37.062Z,45
2016-10-05T21:13:36.984Z,44.9
2016-10-05T21:14:36.924Z,45.12
2016-10-05T21:15:36.861Z,45.58
2016-10-05T21:16:37.117Z,45.58
2016-10-05T21:17:36.740Z,45.77
2016-10-05T21:18:36.682Z,45.48
2016-10-05T21:19:36.616Z,45.39
2016-10-05T21:20:36.564Z,45.48
2016-10-05T21:21:36.500Z,45.2
2016-10-05T21:22:36.753Z,45.48
2016-10-05T21:23:36.685Z,45.39
2016-10-05T21:24:36.816Z,45.39
2016-10-05T21:25:36.251Z,45.29
2016-10-05T21:26:36.192Z,45.68
2016-10-05T21:27:36.367Z,45.48
2016-10-05T21:28:36.378Z,45.48
2016-10-05T21:29:36.011Z,45.68
2016-10-05T21:30:35.952Z,45.58
2016-10-05T21:31:35.885Z,45.48
2016-10-05T21:32:35.829Z,45.39
2016-10-05T21:33:35.767Z,45.58
2016-10-05T21:34:35.705Z,45.48
2016-10-05T21:35:35.640Z,45.48
2016-10-05T21:36:35.580Z,45.39
2016-10-05T21:37:35.520Z,45.68
2016-10-05T21:38:35.463Z,45.48
2016-10-05T21:39:35.395Z,45.68
2016-10-05T21:40:35.335Z,45.48
2016-10-05T21:41:35.274Z,45.58
2016-10-05T21:42:35.211Z,45.48
2016-10-05T21:43:36.668Z,45.68
2016-10-05T21:44:35.091Z,45.48
2016-10-05T21:45:35.036Z,45.48
2016-10-05T21:46:34.969Z,45.39
2016-10-05T21:47:34.909Z,45.48
2016-10-05T21:48:34.847Z,45.39
2016-10-05T21:49:34.785Z,45.48
2016-10-05T21:50:34.728Z,45.48
2016-10-05T21:51:34.669Z,45.39
2016-10-05T21:52:34.600Z,45.39
2016-10-05T21:53:34.538Z,45.39
2016-10-05T21:54:34.795Z,45.58
2016-10-05T21:55:34.420Z,45.29
2016-10-05T21:56:34.365Z,45.39
2016-10-05T21:57:34.302Z,45.48
2016-10-05T21:58:34.235Z,45.48
2016-10-05T21:59:34.173Z,45.48
2016-10-05T22:00:34.117Z,45.58
2016-10-05T22:01:34.256Z,45.48
2016-10-05T22:02:33.989Z,45.39
2016-10-05T22:03:33.927Z,45.68
2016-10-05T22:04:33.867Z,45.39
2016-10-05T22:05:33.813Z,45.58
2016-10-05T22:06:33.744Z,45.48
2016-10-05T22:07:33.997Z,45.58
2016-10-05T22:08:33.617Z,45.58
2016-10-05T22:09:33.560Z,45.39
2016-10-05T22:10:33.507Z,45.39
2016-10-05T22:11:33.771Z,45.68
2016-10-05T22:12:33.376Z,45.48
2016-10-05T22:13:33.313Z,45.48
2016-10-05T22:14:33.570Z,45.29
2016-10-05T22:15:33.196Z,45.29
2016-10-05T22:16:33.134Z,45.39
2016-10-05T22:17:33.071Z,45.29
2016-10-05T22:18:33.011Z,45.39
2016-10-05T22:19:32.949Z,45.58
2016-10-05T22:20:32.892Z,45.29
2016-10-05T22:21:32.824Z,45.58
2016-10-05T22:22:32.991Z,45.29
2016-10-05T22:23:32.709Z,45.77
2016-10-05T22:24:32.641Z,45.58
2016-10-05T22:25:32.582Z,45.39
2016-10-05T22:26:32.520Z,45.29
2016-10-05T22:27:32.456Z,45.39
2016-10-05T22:28:32.390Z,45.58
2016-10-05T22:29:32.542Z,45.68
2016-10-05T22:30:32.271Z,45.2
2016-10-05T22:31:32.213Z,45.58
2016-10-05T22:32:32.166Z,45.2
2016-10-05T22:33:32.090Z,45.2
2016-10-05T22:34:32.033Z,45.58
2016-10-05T22:35:31.965Z,45.58
2016-10-05T22:36:31.906Z,45.48
2016-10-05T22:37:31.844Z,45.58
2016-10-05T22:38:31.787Z,45.2
2016-10-05T22:39:31.726Z,45.39
2016-10-05T22:40:31.664Z,45.58
2016-10-05T22:41:31.595Z,45.2
2016-10-05T22:42:31.537Z,45.2
2016-10-05T22:43:31.788Z,45.2
2016-10-05T22:44:31.417Z,45.48
2016-10-05T22:45:31.667Z,45.58
2016-10-05T22:46:31.292Z,45.58
2016-10-05T22:47:31.229Z,45.58
2016-10-05T22:48:31.174Z,45.58
2016-10-05T22:49:31.105Z,45.77
2016-10-05T22:50:31.357Z,45.2
2016-10-05T22:51:30.984Z,45.29
2016-10-05T22:52:30.924Z,45.29
2016-10-05T22:53:30.861Z,45.2
2016-10-05T22:54:30.800Z,45.2
2016-10-05T22:55:30.941Z,45.2
2016-10-05T22:56:30.682Z,45.2
2016-10-05T22:57:30.618Z,45.68
2016-10-05T22:58:30.564Z,45.48
2016-10-05T22:59:30.491Z,45.29
2016-10-05T23:00:30.751Z,45.29
2016-10-05T23:01:30.373Z,45.29
2016-10-05T23:02:30.309Z,45.2
2016-10-05T23:03:30.571Z,45.58
2016-10-05T23:04:30.192Z,45.77
2016-10-05T23:05:30.131Z,45.29
2016-10-05T23:06:30.064Z,45.58
2016-10-05T23:07:30.007Z,45.2
2016-10-05T23:08:29.945Z,45.29
2016-10-05T23:09:29.888Z,45.2
2016-10-05T23:10:29.826Z,45.2
2016-10-05T23:11:29.772Z,45.31
2016-10-05T23:12:29.702Z,45.2
2016-10-05T23:13:29.636Z,45.29
2016-10-05T23:14:29.586Z,45.29
2016-10-05T23:15:29.514Z,45.29
2016-10-05T23:16:29.455Z,45.2
2016-10-05T23:17:29.396Z,45.2
2016-10-05T23:18:29.333Z,45.29
2016-10-05T23:19:29.273Z,45.21
2016-10-05T23:20:29.218Z,45.1
2016-10-05T23:21:29.150Z,45.29
2016-10-05T23:22:29.089Z,45.29
2016-10-05T23:23:29.032Z,45.29
2016-10-05T23:24:28.965Z,45.39
2016-10-05T23:25:28.902Z,45.48
2016-10-05T23:26:28.848Z,45.29
2016-10-05T23:27:28.781Z,45.29
2016-10-05T23:28:28.719Z,45.2
2016-10-05T23:29:28.658Z,45.29
2016-10-05T23:30:28.604Z,45.29
2016-10-05T23:31:28.537Z,45.48
2016-10-05T23:32:28.474Z,45.2
2016-10-05T23:33:28.416Z,45.29
2016-10-05T23:34:28.352Z,45.29
2016-10-05T23:35:28.509Z,45.2
2016-10-05T23:36:28.232Z,45.2
2016-10-05T23:37:28.171Z,45.29
2016-10-05T23:38:28.419Z,45.2
2016-10-05T23:39:28.051Z,45.39
2016-10-05T23:40:27.983Z,45.29
2016-10-05T23:41:27.922Z,45.29
2016-10-05T23:42:27.864Z,45.29
2016-10-05T23:43:27.806Z,45.29
2016-10-05T23:44:27.745Z,45.2
2016-10-05T23:45:27.685Z,45.29
2016-10-05T23:46:27.622Z,45.2
2016-10-05T23:47:27.565Z,45.2
2016-10-05T23:48:27.497Z,45.2
2016-10-05T23:49:27.751Z,45.2
2016-10-05T23:50:27.372Z,45.21
2016-10-05T23:51:27.639Z,45.2
2016-10-05T23:52:27.562Z,45.2
2016-10-05T23:53:27.206Z,45.31
2016-10-05T23:54:27.134Z,45.29
2016-10-05T23:55:27.071Z,45.2
2016-10-05T23:56:27.006Z,45.1
2016-10-05T23:57:26.945Z,45.1
2016-10-05T23:58:26.884Z,45.2
2016-10-05T23:59:26.825Z,45.21
